sensor_id;sensor_type;location;lat;lon;timestamp;P1;durP1;ratioP1;P2;durP2;ratioP2
12947;SDS011;6539;49.476;8.484;2022-09-09T00:02:10;4.03;;;1.70;;
12947;SDS011;6539;49.476;8.484;2022-09-09T00:05:04;3.30;;;1.40;;
12947;SDS011;6539;49.476;8.484;2022-09-09T00:07:54;2.33;;;1.60;;
12947;SDS011;6539;49.476;8.484;2022-09-09T00:21:17;4.60;;;1.87;;
12947;SDS011;6539;49.476;8.484;2022-09-09T00:23:53;3.17;;;1.67;;
12947;SDS011;6539;49.476;8.484;2022-09-09T00:26:32;2.27;;;1.50;;
12947;SDS011;6539;49.476;8.484;2022-09-09T00:31:32;3.73;;;1.70;;
12947;SDS011;6539;49.476;8.484;2022-09-09T00:34:44;4.13;;;1.73;;
12947;SDS011;6539;49.476;8.484;2022-09-09T00:36:52;4.47;;;1.80;;
12947;SDS011;6539;49.476;8.484;2022-09-09T00:39:29;4.50;;;1.60;;
12947;SDS011;6539;49.476;8.484;2022-09-09T00:47:55;4.73;;;1.90;;
12947;SDS011;6539;49.476;8.484;2022-09-09T00:56:36;3.80;;;1.53;;
12947;SDS011;6539;49.476;8.484;2022-09-09T01:11:07;3.50;;;1.70;;
12947;SDS011;6539;49.476;8.484;2022-09-09T01:13:46;4.67;;;1.40;;
12947;SDS011;6539;49.476;8.484;2022-09-09T01:16:25;5.23;;;1.87;;
12947;SDS011;6539;49.476;8.484;2022-09-09T01:18:54;3.70;;;1.60;;
12947;SDS011;6539;49.476;8.484;2022-09-09T01:22:16;5.10;;;2.00;;
12947;SDS011;6539;49.476;8.484;2022-09-09T01:24:42;6.10;;;1.83;;
12947;SDS011;6539;49.476;8.484;2022-09-09T01:27:40;3.57;;;1.63;;
12947;SDS011;6539;49.476;8.484;2022-09-09T01:30:10;3.10;;;1.70;;
12947;SDS011;6539;49.476;8.484;2022-09-09T01:38:15;6.17;;;1.90;;
12947;SDS011;6539;49.476;8.484;2022-09-09T01:40:45;6.23;;;1.90;;
12947;SDS011;6539;49.476;8.484;2022-09-09T01:43:11;5.17;;;2.13;;
12947;SDS011;6539;49.476;8.484;2022-09-09T01:45:39;3.57;;;1.63;;
12947;SDS011;6539;49.476;8.484;2022-09-09T01:48:10;3.77;;;1.40;;
12947;SDS011;6539;49.476;8.484;2022-09-09T01:50:38;4.77;;;1.77;;
12947;SDS011;6539;49.476;8.484;2022-09-09T01:53:04;2.10;;;1.40;;
12947;SDS011;6539;49.476;8.484;2022-09-09T01:55:40;3.57;;;1.60;;
12947;SDS011;6539;49.476;8.484;2022-09-09T02:04:03;3.63;;;1.50;;
12947;SDS011;6539;49.476;8.484;2022-09-09T02:07:02;4.30;;;1.90;;
12947;SDS011;6539;49.476;8.484;2022-09-09T02:09:47;5.10;;;1.83;;
12947;SDS011;6539;49.476;8.484;2022-09-09T02:12:24;5.53;;;1.80;;
12947;SDS011;6539;49.476;8.484;2022-09-09T02:14:58;2.90;;;1.37;;
12947;SDS011;6539;49.476;8.484;2022-09-09T02:17:34;4.03;;;1.70;;
12947;SDS011;6539;49.476;8.484;2022-09-09T02:20:06;3.97;;;1.63;;
12947;SDS011;6539;49.476;8.484;2022-09-09T02:22:37;4.60;;;1.80;;
12947;SDS011;6539;49.476;8.484;2022-09-09T02:25:10;2.90;;;1.70;;
12947;SDS011;6539;49.476;8.484;2022-09-09T02:27:41;2.37;;;1.67;;
12947;SDS011;6539;49.476;8.484;2022-09-09T02:30:14;6.47;;;1.90;;
12947;SDS011;6539;49.476;8.484;2022-09-09T02:32:41;4.57;;;1.67;;
12947;SDS011;6539;49.476;8.484;2022-09-09T02:35:14;2.70;;;1.90;;
12947;SDS011;6539;49.476;8.484;2022-09-09T02:37:45;2.97;;;1.80;;
12947;SDS011;6539;49.476;8.484;2022-09-09T02:40:12;3.80;;;1.93;;
12947;SDS011;6539;49.476;8.484;2022-09-09T02:42:44;4.67;;;1.70;;
12947;SDS011;6539;49.476;8.484;2022-09-09T02:45:12;3.77;;;1.47;;
12947;SDS011;6539;49.476;8.484;2022-09-09T02:50:39;3.80;;;1.33;;
12947;SDS011;6539;49.476;8.484;2022-09-09T02:53:19;5.07;;;1.73;;
12947;SDS011;6539;49.476;8.484;2022-09-09T02:55:59;5.60;;;2.07;;
12947;SDS011;6539;49.476;8.484;2022-09-09T02:58:34;3.57;;;1.50;;
12947;SDS011;6539;49.476;8.484;2022-09-09T03:01:01;2.47;;;1.27;;
12947;SDS011;6539;49.476;8.484;2022-09-09T03:03:33;6.70;;;1.93;;
12947;SDS011;6539;49.476;8.484;2022-09-09T03:06:00;2.33;;;1.30;;
12947;SDS011;6539;49.476;8.484;2022-09-09T03:08:28;6.40;;;1.63;;
12947;SDS011;6539;49.476;8.484;2022-09-09T03:10:54;5.00;;;1.73;;
12947;SDS011;6539;49.476;8.484;2022-09-09T03:13:20;3.73;;;1.43;;
12947;SDS011;6539;49.476;8.484;2022-09-09T03:15:47;3.63;;;1.67;;
12947;SDS011;6539;49.476;8.484;2022-09-09T03:18:13;3.07;;;1.60;;
12947;SDS011;6539;49.476;8.484;2022-09-09T03:20:39;4.20;;;1.60;;
12947;SDS011;6539;49.476;8.484;2022-09-09T03:23:07;2.50;;;1.30;;
12947;SDS011;6539;49.476;8.484;2022-09-09T03:25:33;3.93;;;1.27;;
12947;SDS011;6539;49.476;8.484;2022-09-09T03:28:01;3.00;;;1.33;;
12947;SDS011;6539;49.476;8.484;2022-09-09T03:30:27;3.37;;;1.30;;
12947;SDS011;6539;49.476;8.484;2022-09-09T03:32:53;2.53;;;1.60;;
12947;SDS011;6539;49.476;8.484;2022-09-09T03:35:22;2.03;;;1.20;;
12947;SDS011;6539;49.476;8.484;2022-09-09T03:37:50;5.57;;;1.50;;
12947;SDS011;6539;49.476;8.484;2022-09-09T03:40:16;3.07;;;1.33;;
12947;SDS011;6539;49.476;8.484;2022-09-09T03:42:43;2.63;;;1.53;;
12947;SDS011;6539;49.476;8.484;2022-09-09T03:45:10;3.27;;;1.40;;
12947;SDS011;6539;49.476;8.484;2022-09-09T03:47:39;1.87;;;1.40;;
12947;SDS011;6539;49.476;8.484;2022-09-09T03:50:06;5.30;;;1.33;;
12947;SDS011;6539;49.476;8.484;2022-09-09T03:52:37;6.90;;;1.37;;
12947;SDS011;6539;49.476;8.484;2022-09-09T03:55:05;4.07;;;1.13;;
12947;SDS011;6539;49.476;8.484;2022-09-09T03:57:33;4.30;;;1.50;;
12947;SDS011;6539;49.476;8.484;2022-09-09T04:00:00;2.40;;;1.23;;
12947;SDS011;6539;49.476;8.484;2022-09-09T04:02:32;1.93;;;1.10;;
12947;SDS011;6539;49.476;8.484;2022-09-09T04:05:00;4.37;;;1.37;;
12947;SDS011;6539;49.476;8.484;2022-09-09T04:07:28;2.77;;;1.40;;
12947;SDS011;6539;49.476;8.484;2022-09-09T04:09:55;3.67;;;1.00;;
12947;SDS011;6539;49.476;8.484;2022-09-09T04:12:22;1.83;;;1.10;;
12947;SDS011;6539;49.476;8.484;2022-09-09T04:14:47;2.80;;;1.50;;
12947;SDS011;6539;49.476;8.484;2022-09-09T04:17:13;4.37;;;1.13;;
12947;SDS011;6539;49.476;8.484;2022-09-09T04:19:43;2.43;;;1.27;;
12947;SDS011;6539;49.476;8.484;2022-09-09T04:22:11;5.77;;;1.20;;
12947;SDS011;6539;49.476;8.484;2022-09-09T04:24:39;3.57;;;1.10;;
12947;SDS011;6539;49.476;8.484;2022-09-09T04:27:05;2.00;;;1.00;;
12947;SDS011;6539;49.476;8.484;2022-09-09T04:29:31;3.40;;;1.40;;
12947;SDS011;6539;49.476;8.484;2022-09-09T04:32:01;5.63;;;1.40;;
12947;SDS011;6539;49.476;8.484;2022-09-09T04:34:27;5.50;;;1.50;;
12947;SDS011;6539;49.476;8.484;2022-09-09T04:36:58;2.47;;;0.90;;
12947;SDS011;6539;49.476;8.484;2022-09-09T04:39:24;3.97;;;1.13;;
12947;SDS011;6539;49.476;8.484;2022-09-09T04:41:50;4.17;;;1.30;;
12947;SDS011;6539;49.476;8.484;2022-09-09T04:44:16;5.17;;;1.07;;
12947;SDS011;6539;49.476;8.484;2022-09-09T04:46:41;3.67;;;1.20;;
12947;SDS011;6539;49.476;8.484;2022-09-09T04:49:09;6.30;;;1.33;;
12947;SDS011;6539;49.476;8.484;2022-09-09T04:51:35;3.30;;;1.20;;
12947;SDS011;6539;49.476;8.484;2022-09-09T04:54:01;2.37;;;1.33;;
12947;SDS011;6539;49.476;8.484;2022-09-09T04:56:30;3.97;;;1.30;;
12947;SDS011;6539;49.476;8.484;2022-09-09T04:58:56;3.47;;;1.20;;
12947;SDS011;6539;49.476;8.484;2022-09-09T05:01:26;5.27;;;1.23;;
12947;SDS011;6539;49.476;8.484;2022-09-09T05:03:54;2.93;;;1.20;;
12947;SDS011;6539;49.476;8.484;2022-09-09T05:06:20;2.30;;;0.97;;
12947;SDS011;6539;49.476;8.484;2022-09-09T05:08:47;3.03;;;1.10;;
12947;SDS011;6539;49.476;8.484;2022-09-09T05:11:20;1.60;;;1.17;;
12947;SDS011;6539;49.476;8.484;2022-09-09T05:13:50;4.70;;;1.10;;
12947;SDS011;6539;49.476;8.484;2022-09-09T05:16:18;3.87;;;1.10;;
12947;SDS011;6539;49.476;8.484;2022-09-09T05:18:45;4.77;;;1.50;;
12947;SDS011;6539;49.476;8.484;2022-09-09T05:21:12;3.37;;;1.43;;
12947;SDS011;6539;49.476;8.484;2022-09-09T05:23:44;4.00;;;1.50;;
12947;SDS011;6539;49.476;8.484;2022-09-09T05:26:20;3.53;;;1.10;;
12947;SDS011;6539;49.476;8.484;2022-09-09T05:28:50;6.23;;;1.20;;
12947;SDS011;6539;49.476;8.484;2022-09-09T05:31:16;2.87;;;0.90;;
12947;SDS011;6539;49.476;8.484;2022-09-09T05:33:44;3.27;;;1.00;;
12947;SDS011;6539;49.476;8.484;2022-09-09T05:36:15;2.53;;;1.03;;
12947;SDS011;6539;49.476;8.484;2022-09-09T05:38:43;3.83;;;1.40;;
12947;SDS011;6539;49.476;8.484;2022-09-09T05:41:10;2.30;;;1.20;;
12947;SDS011;6539;49.476;8.484;2022-09-09T05:43:42;3.80;;;1.40;;
12947;SDS011;6539;49.476;8.484;2022-09-09T05:46:13;7.17;;;1.50;;
12947;SDS011;6539;49.476;8.484;2022-09-09T05:48:43;2.93;;;1.20;;
12947;SDS011;6539;49.476;8.484;2022-09-09T05:51:16;2.80;;;1.00;;
12947;SDS011;6539;49.476;8.484;2022-09-09T05:53:49;3.07;;;1.00;;
12947;SDS011;6539;49.476;8.484;2022-09-09T05:56:20;6.23;;;1.50;;
12947;SDS011;6539;49.476;8.484;2022-09-09T05:58:50;3.43;;;1.30;;
12947;SDS011;6539;49.476;8.484;2022-09-09T06:01:26;4.47;;;1.27;;
12947;SDS011;6539;49.476;8.484;2022-09-09T06:03:58;2.63;;;1.00;;
12947;SDS011;6539;49.476;8.484;2022-09-09T06:06:34;2.90;;;1.23;;
12947;SDS011;6539;49.476;8.484;2022-09-09T06:09:05;4.47;;;1.27;;
12947;SDS011;6539;49.476;8.484;2022-09-09T06:11:34;1.40;;;1.13;;
12947;SDS011;6539;49.476;8.484;2022-09-09T06:14:03;6.40;;;1.27;;
12947;SDS011;6539;49.476;8.484;2022-09-09T06:16:30;2.53;;;1.30;;
12947;SDS011;6539;49.476;8.484;2022-09-09T06:19:00;3.83;;;1.30;;
12947;SDS011;6539;49.476;8.484;2022-09-09T06:21:35;2.73;;;1.00;;
12947;SDS011;6539;49.476;8.484;2022-09-09T06:24:06;3.93;;;1.40;;
12947;SDS011;6539;49.476;8.484;2022-09-09T06:26:35;4.27;;;1.43;;
12947;SDS011;6539;49.476;8.484;2022-09-09T06:29:09;5.70;;;1.27;;
12947;SDS011;6539;49.476;8.484;2022-09-09T06:31:38;2.70;;;1.33;;
12947;SDS011;6539;49.476;8.484;2022-09-09T06:34:05;4.50;;;1.20;;
12947;SDS011;6539;49.476;8.484;2022-09-09T06:36:36;5.20;;;1.50;;
12947;SDS011;6539;49.476;8.484;2022-09-09T06:39:06;3.67;;;1.10;;
12947;SDS011;6539;49.476;8.484;2022-09-09T06:41:36;4.87;;;1.53;;
12947;SDS011;6539;49.476;8.484;2022-09-09T06:44:03;5.87;;;1.30;;
12947;SDS011;6539;49.476;8.484;2022-09-09T06:46:34;3.73;;;1.30;;
12947;SDS011;6539;49.476;8.484;2022-09-09T06:49:03;2.80;;;1.20;;
12947;SDS011;6539;49.476;8.484;2022-09-09T06:51:35;2.70;;;1.20;;
12947;SDS011;6539;49.476;8.484;2022-09-09T06:54:07;5.30;;;1.70;;
12947;SDS011;6539;49.476;8.484;2022-09-09T06:56:38;5.30;;;1.43;;
12947;SDS011;6539;49.476;8.484;2022-09-09T06:59:07;4.47;;;1.40;;
12947;SDS011;6539;49.476;8.484;2022-09-09T07:01:37;1.20;;;1.00;;
12947;SDS011;6539;49.476;8.484;2022-09-09T07:04:17;1.23;;;0.90;;
12947;SDS011;6539;49.476;8.484;2022-09-09T07:06:44;2.83;;;1.20;;
12947;SDS011;6539;49.476;8.484;2022-09-09T07:09:12;2.93;;;1.07;;
12947;SDS011;6539;49.476;8.484;2022-09-09T07:11:41;3.43;;;1.20;;
12947;SDS011;6539;49.476;8.484;2022-09-09T07:14:11;4.03;;;1.30;;
12947;SDS011;6539;49.476;8.484;2022-09-09T07:16:38;3.27;;;1.20;;
12947;SDS011;6539;49.476;8.484;2022-09-09T07:19:06;4.60;;;1.33;;
12947;SDS011;6539;49.476;8.484;2022-09-09T07:21:32;1.87;;;1.60;;
12947;SDS011;6539;49.476;8.484;2022-09-09T07:24:01;3.87;;;1.30;;
12947;SDS011;6539;49.476;8.484;2022-09-09T07:26:30;3.67;;;1.10;;
12947;SDS011;6539;49.476;8.484;2022-09-09T07:28:56;3.53;;;1.30;;
12947;SDS011;6539;49.476;8.484;2022-09-09T07:31:32;2.03;;;1.20;;
12947;SDS011;6539;49.476;8.484;2022-09-09T07:34:01;2.87;;;1.40;;
12947;SDS011;6539;49.476;8.484;2022-09-09T07:36:32;3.17;;;1.10;;
12947;SDS011;6539;49.476;8.484;2022-09-09T07:39:08;5.97;;;1.17;;
12947;SDS011;6539;49.476;8.484;2022-09-09T07:41:41;4.73;;;1.53;;
12947;SDS011;6539;49.476;8.484;2022-09-09T07:44:12;3.53;;;1.50;;
12947;SDS011;6539;49.476;8.484;2022-09-09T07:46:42;5.63;;;1.40;;
12947;SDS011;6539;49.476;8.484;2022-09-09T07:49:11;4.17;;;1.43;;
12947;SDS011;6539;49.476;8.484;2022-09-09T07:51:40;6.33;;;1.67;;
12947;SDS011;6539;49.476;8.484;2022-09-09T07:54:11;3.07;;;1.40;;
12947;SDS011;6539;49.476;8.484;2022-09-09T07:56:42;3.83;;;1.37;;
12947;SDS011;6539;49.476;8.484;2022-09-09T07:59:08;5.77;;;1.50;;
12947;SDS011;6539;49.476;8.484;2022-09-09T08:01:36;3.77;;;1.63;;
12947;SDS011;6539;49.476;8.484;2022-09-09T08:04:23;5.13;;;1.80;;
12947;SDS011;6539;49.476;8.484;2022-09-09T08:06:56;2.83;;;1.73;;
12947;SDS011;6539;49.476;8.484;2022-09-09T08:09:27;4.00;;;1.27;;
12947;SDS011;6539;49.476;8.484;2022-09-09T08:11:56;4.37;;;1.40;;
12947;SDS011;6539;49.476;8.484;2022-09-09T08:14:23;3.50;;;1.53;;
12947;SDS011;6539;49.476;8.484;2022-09-09T08:16:49;5.67;;;2.10;;
12947;SDS011;6539;49.476;8.484;2022-09-09T08:19:16;5.33;;;1.70;;
12947;SDS011;6539;49.476;8.484;2022-09-09T08:21:42;3.83;;;1.60;;
12947;SDS011;6539;49.476;8.484;2022-09-09T08:24:10;4.20;;;1.57;;
12947;SDS011;6539;49.476;8.484;2022-09-09T08:26:41;6.03;;;1.30;;
12947;SDS011;6539;49.476;8.484;2022-09-09T08:29:12;7.10;;;2.00;;
12947;SDS011;6539;49.476;8.484;2022-09-09T08:31:48;5.97;;;1.87;;
12947;SDS011;6539;49.476;8.484;2022-09-09T08:34:17;6.03;;;1.67;;
12947;SDS011;6539;49.476;8.484;2022-09-09T08:36:47;7.07;;;1.67;;
12947;SDS011;6539;49.476;8.484;2022-09-09T08:39:17;6.33;;;1.60;;
12947;SDS011;6539;49.476;8.484;2022-09-09T08:50:54;8.57;;;2.77;;
12947;SDS011;6539;49.476;8.484;2022-09-09T08:53:27;4.33;;;1.80;;
12947;SDS011;6539;49.476;8.484;2022-09-09T08:56:14;4.33;;;1.77;;
12947;SDS011;6539;49.476;8.484;2022-09-09T08:58:48;4.33;;;1.53;;
12947;SDS011;6539;49.476;8.484;2022-09-09T09:04:29;6.07;;;1.77;;
12947;SDS011;6539;49.476;8.484;2022-09-09T09:12:38;7.00;;;1.70;;
12947;SDS011;6539;49.476;8.484;2022-09-09T09:15:31;4.37;;;1.47;;
12947;SDS011;6539;49.476;8.484;2022-09-09T09:18:04;6.83;;;1.83;;
12947;SDS011;6539;49.476;8.484;2022-09-09T09:23:19;2.97;;;1.43;;
12947;SDS011;6539;49.476;8.484;2022-09-09T09:25:56;4.53;;;1.90;;
12947;SDS011;6539;49.476;8.484;2022-09-09T09:28:27;3.00;;;1.37;;
12947;SDS011;6539;49.476;8.484;2022-09-09T09:30:59;6.23;;;1.57;;
12947;SDS011;6539;49.476;8.484;2022-09-09T09:36:09;4.97;;;1.53;;
12947;SDS011;6539;49.476;8.484;2022-09-09T09:38:35;6.20;;;1.53;;
12947;SDS011;6539;49.476;8.484;2022-09-09T09:41:02;4.80;;;1.73;;
12947;SDS011;6539;49.476;8.484;2022-09-09T09:43:34;5.13;;;1.40;;
12947;SDS011;6539;49.476;8.484;2022-09-09T09:46:18;4.27;;;1.43;;
12947;SDS011;6539;49.476;8.484;2022-09-09T09:48:58;6.10;;;1.70;;
12947;SDS011;6539;49.476;8.484;2022-09-09T09:51:34;4.27;;;1.33;;
12947;SDS011;6539;49.476;8.484;2022-09-09T09:56:56;6.33;;;2.00;;
12947;SDS011;6539;49.476;8.484;2022-09-09T09:59:41;4.33;;;1.53;;
12947;SDS011;6539;49.476;8.484;2022-09-09T10:02:15;4.57;;;1.67;;
12947;SDS011;6539;49.476;8.484;2022-09-09T10:04:59;2.90;;;1.40;;
12947;SDS011;6539;49.476;8.484;2022-09-09T10:07:28;6.27;;;1.47;;
12947;SDS011;6539;49.476;8.484;2022-09-09T10:09:57;4.47;;;1.37;;
12947;SDS011;6539;49.476;8.484;2022-09-09T10:12:44;2.87;;;1.20;;
12947;SDS011;6539;49.476;8.484;2022-09-09T10:20:54;3.27;;;1.23;;
12947;SDS011;6539;49.476;8.484;2022-09-09T10:38:57;3.07;;;1.63;;
12947;SDS011;6539;49.476;8.484;2022-09-09T10:47:47;5.10;;;1.50;;
12947;SDS011;6539;49.476;8.484;2022-09-09T10:53:37;3.97;;;1.60;;
12947;SDS011;6539;49.476;8.484;2022-09-09T10:56:27;7.07;;;2.10;;
12947;SDS011;6539;49.476;8.484;2022-09-09T11:01:28;6.57;;;1.97;;
12947;SDS011;6539;49.476;8.484;2022-09-09T11:04:24;4.00;;;1.40;;
12947;SDS011;6539;49.476;8.484;2022-09-09T11:06:59;4.90;;;1.70;;
12947;SDS011;6539;49.476;8.484;2022-09-09T11:09:35;7.37;;;1.93;;
12947;SDS011;6539;49.476;8.484;2022-09-09T11:12:15;5.57;;;1.67;;
12947;SDS011;6539;49.476;8.484;2022-09-09T11:14:53;4.03;;;1.50;;
12947;SDS011;6539;49.476;8.484;2022-09-09T11:17:34;6.40;;;1.47;;
12947;SDS011;6539;49.476;8.484;2022-09-09T11:20:12;3.90;;;1.13;;
12947;SDS011;6539;49.476;8.484;2022-09-09T11:22:46;5.10;;;1.77;;
12947;SDS011;6539;49.476;8.484;2022-09-09T11:25:37;4.97;;;1.70;;
12947;SDS011;6539;49.476;8.484;2022-09-09T11:42:23;3.07;;;1.20;;
12947;SDS011;6539;49.476;8.484;2022-09-09T11:44:49;4.10;;;1.57;;
12947;SDS011;6539;49.476;8.484;2022-09-09T11:47:20;5.10;;;1.57;;
12947;SDS011;6539;49.476;8.484;2022-09-09T11:50:40;3.97;;;1.70;;
12947;SDS011;6539;49.476;8.484;2022-09-09T11:52:42;4.20;;;1.70;;
12947;SDS011;6539;49.476;8.484;2022-09-09T11:55:28;5.00;;;1.40;;
12947;SDS011;6539;49.476;8.484;2022-09-09T11:58:05;6.83;;;1.57;;
12947;SDS011;6539;49.476;8.484;2022-09-09T12:00:44;5.37;;;1.43;;
12947;SDS011;6539;49.476;8.484;2022-09-09T12:09:07;6.47;;;1.40;;
12947;SDS011;6539;49.476;8.484;2022-09-09T12:17:10;4.23;;;1.50;;
12947;SDS011;6539;49.476;8.484;2022-09-09T12:19:47;6.53;;;1.63;;
12947;SDS011;6539;49.476;8.484;2022-09-09T12:31:22;2.00;;;0.97;;
12947;SDS011;6539;49.476;8.484;2022-09-09T12:34:25;4.03;;;1.43;;
12947;SDS011;6539;49.476;8.484;2022-09-09T12:38:19;2.03;;;1.00;;
12947;SDS011;6539;49.476;8.484;2022-09-09T12:40:31;3.03;;;1.03;;
12947;SDS011;6539;49.476;8.484;2022-09-09T12:43:14;3.23;;;1.10;;
12947;SDS011;6539;49.476;8.484;2022-09-09T12:45:47;3.43;;;2.80;;
12947;SDS011;6539;49.476;8.484;2022-09-09T12:48:22;2.23;;;1.20;;
12947;SDS011;6539;49.476;8.484;2022-09-09T12:51:05;3.60;;;0.93;;
12947;SDS011;6539;49.476;8.484;2022-09-09T12:53:44;4.07;;;1.47;;
12947;SDS011;6539;49.476;8.484;2022-09-09T12:56:22;2.53;;;1.03;;
12947;SDS011;6539;49.476;8.484;2022-09-09T12:58:56;2.20;;;1.27;;
12947;SDS011;6539;49.476;8.484;2022-09-09T13:04:00;2.43;;;1.20;;
12947;SDS011;6539;49.476;8.484;2022-09-09T13:06:31;3.30;;;1.20;;
12947;SDS011;6539;49.476;8.484;2022-09-09T13:09:01;2.67;;;1.30;;
12947;SDS011;6539;49.476;8.484;2022-09-09T13:11:31;3.13;;;1.30;;
12947;SDS011;6539;49.476;8.484;2022-09-09T13:14:12;4.83;;;1.60;;
12947;SDS011;6539;49.476;8.484;2022-09-09T13:16:58;4.20;;;1.90;;
12947;SDS011;6539;49.476;8.484;2022-09-09T13:19:29;3.70;;;1.70;;
12947;SDS011;6539;49.476;8.484;2022-09-09T13:22:14;4.40;;;1.77;;
12947;SDS011;6539;49.476;8.484;2022-09-09T13:25:21;5.30;;;1.90;;
12947;SDS011;6539;49.476;8.484;2022-09-09T13:27:55;7.23;;;1.70;;
12947;SDS011;6539;49.476;8.484;2022-09-09T13:33:06;8.27;;;2.43;;
12947;SDS011;6539;49.476;8.484;2022-09-09T13:38:26;5.33;;;1.63;;
12947;SDS011;6539;49.476;8.484;2022-09-09T13:41:03;2.83;;;1.33;;
12947;SDS011;6539;49.476;8.484;2022-09-09T13:43:36;5.00;;;2.20;;
12947;SDS011;6539;49.476;8.484;2022-09-09T13:54:15;5.30;;;2.00;;
12947;SDS011;6539;49.476;8.484;2022-09-09T13:56:43;2.87;;;1.37;;
12947;SDS011;6539;49.476;8.484;2022-09-09T13:59:12;4.87;;;1.40;;
12947;SDS011;6539;49.476;8.484;2022-09-09T14:01:44;3.50;;;1.53;;
12947;SDS011;6539;49.476;8.484;2022-09-09T14:04:17;2.37;;;1.10;;
12947;SDS011;6539;49.476;8.484;2022-09-09T14:06:46;4.90;;;2.10;;
12947;SDS011;6539;49.476;8.484;2022-09-09T14:09:16;1.67;;;0.97;;
12947;SDS011;6539;49.476;8.484;2022-09-09T14:11:43;3.07;;;1.90;;
12947;SDS011;6539;49.476;8.484;2022-09-09T14:14:13;2.90;;;1.80;;
12947;SDS011;6539;49.476;8.484;2022-09-09T14:16:38;2.27;;;1.70;;
12947;SDS011;6539;49.476;8.484;2022-09-09T14:19:05;3.83;;;1.33;;
12947;SDS011;6539;49.476;8.484;2022-09-09T14:21:33;4.53;;;1.60;;
12947;SDS011;6539;49.476;8.484;2022-09-09T14:23:59;2.67;;;1.10;;
12947;SDS011;6539;49.476;8.484;2022-09-09T14:26:25;1.83;;;1.30;;
12947;SDS011;6539;49.476;8.484;2022-09-09T14:28:54;2.83;;;1.30;;
12947;SDS011;6539;49.476;8.484;2022-09-09T14:31:21;2.67;;;0.83;;
12947;SDS011;6539;49.476;8.484;2022-09-09T14:33:49;1.13;;;0.97;;
12947;SDS011;6539;49.476;8.484;2022-09-09T14:36:18;2.77;;;1.10;;
12947;SDS011;6539;49.476;8.484;2022-09-09T14:38:44;1.63;;;0.90;;
12947;SDS011;6539;49.476;8.484;2022-09-09T14:41:11;2.63;;;1.13;;
12947;SDS011;6539;49.476;8.484;2022-09-09T14:43:41;2.20;;;0.90;;
12947;SDS011;6539;49.476;8.484;2022-09-09T14:46:11;2.00;;;1.10;;
12947;SDS011;6539;49.476;8.484;2022-09-09T14:48:40;2.40;;;1.00;;
12947;SDS011;6539;49.476;8.484;2022-09-09T14:51:13;3.60;;;1.17;;
12947;SDS011;6539;49.476;8.484;2022-09-09T14:53:42;3.50;;;0.90;;
12947;SDS011;6539;49.476;8.484;2022-09-09T14:56:16;4.60;;;1.20;;
12947;SDS011;6539;49.476;8.484;2022-09-09T14:58:47;2.43;;;0.90;;
12947;SDS011;6539;49.476;8.484;2022-09-09T15:01:18;1.03;;;0.90;;
12947;SDS011;6539;49.476;8.484;2022-09-09T15:03:53;2.43;;;1.00;;
12947;SDS011;6539;49.476;8.484;2022-09-09T15:06:29;1.97;;;1.20;;
12947;SDS011;6539;49.476;8.484;2022-09-09T15:08:58;3.63;;;1.40;;
12947;SDS011;6539;49.476;8.484;2022-09-09T15:11:29;2.27;;;1.20;;
12947;SDS011;6539;49.476;8.484;2022-09-09T15:14:02;2.33;;;1.10;;
12947;SDS011;6539;49.476;8.484;2022-09-09T15:16:29;2.70;;;1.20;;
12947;SDS011;6539;49.476;8.484;2022-09-09T15:18:59;3.27;;;1.50;;
12947;SDS011;6539;49.476;8.484;2022-09-09T15:21:33;3.07;;;1.30;;
12947;SDS011;6539;49.476;8.484;2022-09-09T15:24:03;4.27;;;1.30;;
12947;SDS011;6539;49.476;8.484;2022-09-09T15:26:29;2.70;;;1.33;;
12947;SDS011;6539;49.476;8.484;2022-09-09T15:28:56;2.87;;;0.97;;
12947;SDS011;6539;49.476;8.484;2022-09-09T15:31:27;2.30;;;0.90;;
12947;SDS011;6539;49.476;8.484;2022-09-09T15:33:57;3.10;;;1.20;;
12947;SDS011;6539;49.476;8.484;2022-09-09T15:38:57;2.90;;;1.00;;
12947;SDS011;6539;49.476;8.484;2022-09-09T15:41:24;1.93;;;1.03;;
12947;SDS011;6539;49.476;8.484;2022-09-09T15:43:51;3.43;;;1.07;;
12947;SDS011;6539;49.476;8.484;2022-09-09T15:46:27;14.27;;;10.00;;
12947;SDS011;6539;49.476;8.484;2022-09-09T15:49:05;38.93;;;28.97;;
12947;SDS011;6539;49.476;8.484;2022-09-09T15:51:35;25.43;;;17.27;;
12947;SDS011;6539;49.476;8.484;2022-09-09T15:54:02;9.77;;;4.87;;
12947;SDS011;6539;49.476;8.484;2022-09-09T15:56:29;17.10;;;10.10;;
12947;SDS011;6539;49.476;8.484;2022-09-09T15:58:59;5.97;;;3.97;;
12947;SDS011;6539;49.476;8.484;2022-09-09T16:01:28;4.23;;;2.90;;
12947;SDS011;6539;49.476;8.484;2022-09-09T16:03:56;2.93;;;1.70;;
12947;SDS011;6539;49.476;8.484;2022-09-09T16:06:28;3.47;;;1.80;;
12947;SDS011;6539;49.476;8.484;2022-09-09T16:08:55;4.07;;;1.70;;
12947;SDS011;6539;49.476;8.484;2022-09-09T16:11:30;2.67;;;1.40;;
12947;SDS011;6539;49.476;8.484;2022-09-09T16:14:00;1.23;;;0.90;;
12947;SDS011;6539;49.476;8.484;2022-09-09T16:16:28;2.50;;;1.20;;
12947;SDS011;6539;49.476;8.484;2022-09-09T16:18:59;2.53;;;1.17;;
12947;SDS011;6539;49.476;8.484;2022-09-09T16:21:34;4.70;;;1.20;;
12947;SDS011;6539;49.476;8.484;2022-09-09T16:24:05;4.23;;;1.20;;
12947;SDS011;6539;49.476;8.484;2022-09-09T16:26:36;1.20;;;0.90;;
12947;SDS011;6539;49.476;8.484;2022-09-09T16:29:05;0.80;;;0.80;;
12947;SDS011;6539;49.476;8.484;2022-09-09T16:31:36;3.57;;;0.97;;
12947;SDS011;6539;49.476;8.484;2022-09-09T16:34:02;3.27;;;1.20;;
12947;SDS011;6539;49.476;8.484;2022-09-09T16:36:32;1.23;;;0.90;;
12947;SDS011;6539;49.476;8.484;2022-09-09T16:39:07;3.67;;;1.03;;
12947;SDS011;6539;49.476;8.484;2022-09-09T16:41:38;1.40;;;0.90;;
12947;SDS011;6539;49.476;8.484;2022-09-09T16:44:07;2.37;;;1.20;;
12947;SDS011;6539;49.476;8.484;2022-09-09T16:46:38;2.07;;;1.67;;
12947;SDS011;6539;49.476;8.484;2022-09-09T16:49:10;2.17;;;1.50;;
12947;SDS011;6539;49.476;8.484;2022-09-09T16:51:39;2.73;;;1.37;;
12947;SDS011;6539;49.476;8.484;2022-09-09T16:54:08;3.50;;;1.67;;
12947;SDS011;6539;49.476;8.484;2022-09-09T16:56:36;2.17;;;1.27;;
12947;SDS011;6539;49.476;8.484;2022-09-09T16:59:08;3.03;;;1.43;;
12947;SDS011;6539;49.476;8.484;2022-09-09T17:01:50;2.87;;;1.80;;
12947;SDS011;6539;49.476;8.484;2022-09-09T17:04:18;2.97;;;1.10;;
12947;SDS011;6539;49.476;8.484;2022-09-09T17:06:51;3.43;;;1.30;;
12947;SDS011;6539;49.476;8.484;2022-09-09T17:09:22;2.00;;;1.10;;
12947;SDS011;6539;49.476;8.484;2022-09-09T17:11:54;1.87;;;0.93;;
12947;SDS011;6539;49.476;8.484;2022-09-09T17:14:21;2.83;;;1.00;;
12947;SDS011;6539;49.476;8.484;2022-09-09T17:16:51;2.23;;;1.83;;
12947;SDS011;6539;49.476;8.484;2022-09-09T17:19:17;4.03;;;1.97;;
12947;SDS011;6539;49.476;8.484;2022-09-09T17:21:45;3.37;;;1.20;;
12947;SDS011;6539;49.476;8.484;2022-09-09T17:24:14;4.70;;;1.67;;
12947;SDS011;6539;49.476;8.484;2022-09-09T17:26:40;4.40;;;1.90;;
12947;SDS011;6539;49.476;8.484;2022-09-09T17:29:07;5.17;;;2.20;;
12947;SDS011;6539;49.476;8.484;2022-09-09T17:31:36;9.00;;;2.67;;
12947;SDS011;6539;49.476;8.484;2022-09-09T17:34:08;4.37;;;2.07;;
12947;SDS011;6539;49.476;8.484;2022-09-09T17:36:34;8.80;;;1.97;;
12947;SDS011;6539;49.476;8.484;2022-09-09T17:39:01;3.50;;;1.77;;
12947;SDS011;6539;49.476;8.484;2022-09-09T17:41:32;5.10;;;1.67;;
12947;SDS011;6539;49.476;8.484;2022-09-09T17:44:01;3.30;;;2.00;;
12947;SDS011;6539;49.476;8.484;2022-09-09T17:46:32;3.00;;;1.70;;
12947;SDS011;6539;49.476;8.484;2022-09-09T17:49:05;3.60;;;1.77;;
12947;SDS011;6539;49.476;8.484;2022-09-09T17:51:35;4.70;;;1.70;;
12947;SDS011;6539;49.476;8.484;2022-09-09T17:54:04;4.00;;;1.20;;
12947;SDS011;6539;49.476;8.484;2022-09-09T17:56:37;3.87;;;1.70;;
12947;SDS011;6539;49.476;8.484;2022-09-09T17:59:06;3.33;;;1.93;;
12947;SDS011;6539;49.476;8.484;2022-09-09T18:01:36;6.43;;;2.83;;
12947;SDS011;6539;49.476;8.484;2022-09-09T18:04:06;2.57;;;1.23;;
12947;SDS011;6539;49.476;8.484;2022-09-09T18:06:39;6.50;;;1.57;;
12947;SDS011;6539;49.476;8.484;2022-09-09T18:09:13;3.30;;;1.67;;
12947;SDS011;6539;49.476;8.484;2022-09-09T18:11:43;4.10;;;1.77;;
12947;SDS011;6539;49.476;8.484;2022-09-09T18:14:19;2.93;;;1.40;;